createdAt,value
2022-10-05T00:03:46.394Z,100
2022-10-05T00:13:46.434Z,100
2022-10-05T00:23:46.367Z,100
2022-10-05T00:33:46.406Z,100
2022-10-05T00:43:46.363Z,100
2022-10-05T00:53:46.421Z,100
2022-10-05T01:03:46.680Z,100
2022-10-05T01:13:46.435Z,100
2022-10-05T01:23:46.387Z,100
2022-10-05T01:33:46.410Z,100
2022-10-05T01:43:46.381Z,100
2022-10-05T01:53:46.409Z,100
2022-10-05T02:03:46.377Z,100
2022-10-05T02:13:46.398Z,100
2022-10-05T02:23:46.401Z,100
2022-10-05T02:33:46.694Z,100
2022-10-05T02:43:46.378Z,100
2022-10-05T02:53:46.384Z,100
2022-10-05T03:03:46.373Z,100
2022-10-05T03:13:46.580Z,100
2022-10-05T03:23:46.376Z,100
2022-10-05T03:33:46.389Z,100
2022-10-05T03:43:46.350Z,100
2022-10-05T03:53:46.541Z,100
2022-10-05T04:03:46.380Z,100
2022-10-05T04:13:46.387Z,100
2022-10-05T04:23:46.377Z,100
2022-10-05T04:33:46.387Z,100
2022-10-05T04:43:46.550Z,100
2022-10-05T04:53:46.378Z,100
2022-10-05T05:03:46.431Z,100
2022-10-05T05:13:46.387Z,100
2022-10-05T05:23:46.359Z,100
2022-10-05T05:33:46.392Z,100
2022-10-05T05:43:46.360Z,100
2022-10-05T05:53:46.370Z,100
2022-10-05T06:03:46.348Z,100
2022-10-05T06:13:46.378Z,100
2022-10-05T06:23:46.349Z,100
2022-10-05T06:33:46.388Z,100
2022-10-05T06:43:46.335Z,100
2022-10-05T06:53:46.401Z,100
2022-10-05T07:03:46.341Z,100
2022-10-05T07:13:46.354Z,100
2022-10-05T07:23:46.343Z,100
2022-10-05T07:33:46.357Z,100
2022-10-05T07:44:01.334Z,100
2022-10-05T07:53:46.413Z,100
2022-10-05T08:03:46.328Z,100
2022-10-05T08:13:46.507Z,100
2022-10-05T08:23:46.319Z,100
2022-10-05T08:33:46.373Z,100
2022-10-05T08:43:46.346Z,100
2022-10-05T08:53:46.334Z,100
2022-10-05T09:03:46.293Z,100
2022-10-05T09:13:46.303Z,100
2022-10-05T09:23:46.302Z,100
2022-10-05T09:33:46.316Z,100
2022-10-05T09:43:46.266Z,100
2022-10-05T09:53:46.292Z,88
2022-10-05T10:03:46.263Z,74
2022-10-05T10:13:46.259Z,67
2022-10-05T10:23:46.232Z,64
2022-10-05T10:33:46.259Z,59
2022-10-05T10:43:46.226Z,62
2022-10-05T10:53:46.222Z,61
2022-10-05T11:03:46.187Z,59
2022-10-05T11:13:46.202Z,58
2022-10-05T11:23:46.171Z,56
2022-10-05T11:33:46.181Z,56
2022-10-05T11:43:46.159Z,57
2022-10-05T11:53:46.176Z,61
2022-10-05T12:03:46.241Z,61
2022-10-05T12:13:46.130Z,60
2022-10-05T12:23:46.127Z,58
2022-10-05T12:33:46.133Z,57
2022-10-05T12:43:46.118Z,58
2022-10-05T12:53:46.126Z,61
2022-10-05T13:03:46.077Z,61
2022-10-05T13:13:46.102Z,61
2022-10-05T13:23:46.072Z,61
2022-10-05T13:33:46.120Z,59
2022-10-05T13:43:46.056Z,60
2022-10-05T13:53:46.048Z,60
2022-10-05T14:03:46.020Z,63
2022-10-05T14:13:46.077Z,59
2022-10-05T14:23:45.991Z,61
2022-10-05T14:33:46.034Z,66
2022-10-05T14:43:45.997Z,67
2022-10-05T14:53:46.010Z,68
2022-10-05T15:03:45.982Z,72
2022-10-05T15:13:45.997Z,74
2022-10-05T15:23:45.962Z,74
2022-10-05T15:33:45.991Z,75
2022-10-05T15:43:45.925Z,76
2022-10-05T15:53:46.015Z,81
2022-10-05T16:03:45.924Z,87
2022-10-05T16:13:45.920Z,92
2022-10-05T16:23:45.898Z,100
2022-10-05T16:33:46.964Z,100
2022-10-05T16:43:46.012Z,100
2022-10-05T16:53:45.892Z,100
2022-10-05T17:03:45.866Z,100
2022-10-05T17:13:45.868Z,100
2022-10-05T17:23:45.847Z,100
2022-10-05T17:33:45.867Z,100
2022-10-05T17:43:45.826Z,100
2022-10-05T17:53:45.873Z,100
2022-10-05T18:03:45.808Z,100
2022-10-05T18:13:45.865Z,100
2022-10-05T18:23:45.830Z,100
2022-10-05T18:33:45.864Z,100
2022-10-05T18:43:45.799Z,100
2022-10-05T18:53:45.861Z,100
2022-10-05T19:03:45.811Z,100
2022-10-05T19:13:53.500Z,100
2022-10-05T19:23:45.773Z,100
2022-10-05T19:33:45.810Z,100
2022-10-05T19:43:45.783Z,100
2022-10-05T19:53:45.802Z,100
2022-10-05T20:03:45.798Z,100
2022-10-05T20:13:45.824Z,100
2022-10-05T20:23:45.912Z,100
2022-10-05T20:33:45.785Z,100
2022-10-05T20:43:45.762Z,100
2022-10-05T20:53:45.758Z,100
2022-10-05T21:03:45.745Z,100
2022-10-05T21:13:45.805Z,100
2022-10-05T21:23:45.728Z,100
2022-10-05T21:33:45.789Z,100
2022-10-05T21:43:45.715Z,100
2022-10-05T21:53:45.760Z,100
2022-10-05T22:03:45.782Z,100
2022-10-05T22:13:45.722Z,100
2022-10-05T22:23:45.709Z,100
2022-10-05T22:33:45.726Z,100
2022-10-05T22:43:45.721Z,100
2022-10-05T22:53:45.718Z,100
2022-10-05T23:03:45.711Z,100
2022-10-05T23:13:45.737Z,100
2022-10-05T23:23:45.694Z,100
2022-10-05T23:33:45.849Z,100
2022-10-05T23:43:45.693Z,100
2022-10-05T23:53:45.810Z,100
